Time;durP1;ratioP1;P1;durP2;ratioP2;P2;SDS_P1;SDS_P2;PMS_P1;PMS_P2;Temp;Humidity;BMP_temperature;BMP_pressure;BME280_temperature;BME280_humidity;BME280_pressure;Samples;Min_cycle;Max_cycle;Signal;HPM_P1;HPM_P2
2022/07/28 00:01:53;;;;;;;1.43;1.43;;;;;;;20.34;71.96;95409.31;4286972;33;20183;-61
2022/07/28 00:04:18;;;;;;;1.13;1.13;;;;;;;20.35;70.92;95404.72;4286352;33;20273;-60
2022/07/28 00:06:44;;;;;;;0.97;0.97;;;;;;;20.33;70.96;95396.22;4290018;33;20190;-61
2022/07/28 00:09:09;;;;;;;1.07;1.07;;;;;;;20.44;72.83;95394.53;4272626;33;20206;-61
2022/07/28 00:11:34;;;;;;;1.30;1.30;;;;;;;20.31;69.73;95396.56;4291417;33;20301;-62
2022/07/28 00:14:00;;;;;;;1.07;1.07;;;;;;;20.22;70.22;95387.88;4279973;33;20246;-63
2022/07/28 00:16:25;;;;;;;1.00;1.00;;;;;;;20.15;71.54;95390.44;4288708;33;20209;-63
2022/07/28 00:18:50;;;;;;;1.43;1.33;;;;;;;20.15;73.62;95382.37;4288940;33;20190;-61
2022/07/28 00:21:16;;;;;;;1.60;1.40;;;;;;;20.09;72.84;95386.47;4286192;33;20269;-61
2022/07/28 00:23:41;;;;;;;0.70;0.70;;;;;;;20.27;73.25;95390.31;4295270;33;20238;-61
2022/07/28 00:26:15;;;;;;;1.10;1.10;;;;;;;20.28;73.51;95386.47;4286282;33;20186;-61
2022/07/28 00:28:41;;;;;;;1.10;1.10;;;;;;;20.19;72.95;95385.88;4284897;33;20204;-62
2022/07/28 00:31:12;;;;;;;4.43;1.60;;;;;;;20.16;72.17;95375.84;4293412;33;20187;-62
2022/07/28 00:33:38;;;;;;;3.33;1.20;;;;;;;20.24;73.29;95372.16;4286398;33;20270;-62
2022/07/28 00:36:15;;;;;;;1.63;1.20;;;;;;;20.15;71.25;95374.28;4293217;33;20186;-62
2022/07/28 00:38:41;;;;;;;1.00;1.00;;;;;;;20.25;73.43;95373.72;4289188;33;20261;-62
2022/07/28 00:41:12;;;;;;;1.27;1.27;;;;;;;20.44;73.28;95371.06;4269996;33;20195;-63
2022/07/28 00:43:40;;;;;;;1.47;1.37;;;;;;;20.35;73.41;95362.38;4288968;33;20183;-62
2022/07/28 00:46:13;;;;;;;0.70;0.70;;;;;;;20.33;72.21;95358.47;4272437;33;20249;-63
2022/07/28 00:48:47;;;;;;;1.07;1.07;;;;;;;20.18;72.71;95362.78;4284425;33;20191;-63
2022/07/28 00:51:15;;;;;;;1.57;1.47;;;;;;;19.97;72.98;95359.63;4278932;33;20198;-62
2022/07/28 00:53:41;;;;;;;1.90;1.63;;;;;;;19.84;74.01;95358.97;4276188;33;20238;-63
2022/07/28 00:56:15;;;;;;;1.37;1.37;;;;;;;19.92;74.56;95355.31;4272204;33;20187;-62
2022/07/28 00:58:41;;;;;;;1.37;1.37;;;;;;;19.80;74.62;95350.81;4294472;33;20194;-63
2022/07/28 01:01:18;;;;;;;1.10;1.10;;;;;;;19.96;74.32;95349.97;4276359;33;20182;-63
2022/07/28 01:03:50;;;;;;;1.83;1.73;;;;;;;20.06;74.36;95349.44;4290791;33;20238;-62
2022/07/28 01:06:31;;;;;;;1.50;1.50;;;;;;;20.02;72.70;95356.66;4273824;33;20241;-61
2022/07/28 01:09:33;;;;;;;1.83;1.73;;;;;;;19.90;74.23;95342.19;4275330;33;20269;-61
2022/07/28 01:12:25;;;;;;;1.73;1.73;;;;;;;19.95;75.64;95343.06;4284406;33;20261;-60
2022/07/28 01:15:18;;;;;;;2.00;1.90;;;;;;;19.82;73.95;95335.09;4283826;33;20209;-61
2022/07/28 01:17:53;;;;;;;2.37;1.70;;;;;;;19.72;75.90;95332.97;4280855;33;20274;-60
2022/07/28 01:20:27;;;;;;;1.50;1.50;;;;;;;19.65;75.71;95332.78;4268317;33;20182;-61
2022/07/28 01:23:12;;;;;;;1.50;1.40;;;;;;;19.76;76.40;95331.09;4280615;33;20201;-61
2022/07/28 01:25:59;;;;;;;2.10;1.50;;;;;;;19.85;75.22;95322.84;4275660;33;20183;-61
2022/07/28 01:28:37;;;;;;;1.50;1.50;;;;;;;19.87;75.42;95324.06;4288080;33;20261;-61
2022/07/28 01:31:13;;;;;;;4.63;2.03;;;;;;;19.85;75.12;95325.53;4282630;33;20253;-60
2022/07/28 01:33:45;;;;;;;1.43;1.40;;;;;;;19.66;74.74;95315.50;4289837;33;20197;-61
2022/07/28 01:36:21;;;;;;;1.37;1.37;;;;;;;19.64;75.62;95317.00;4289888;33;20217;-60
2022/07/28 01:38:48;;;;;;;2.00;1.90;;;;;;;19.66;76.09;95320.91;4286069;33;20312;-61
2022/07/28 01:41:18;;;;;;;1.67;1.57;;;;;;;19.67;76.52;95311.69;4283038;33;20273;-60
2022/07/28 01:43:50;;;;;;;1.50;1.50;;;;;;;19.70;75.97;95308.31;4266218;33;20195;-60
2022/07/28 01:46:17;;;;;;;1.30;1.30;;;;;;;19.71;75.62;95304.47;4283028;33;20191;-61
2022/07/28 01:48:45;;;;;;;2.20;2.10;;;;;;;19.80;76.03;95305.03;4273039;33;20198;-60
2022/07/28 01:51:15;;;;;;;1.70;1.60;;;;;;;19.85;75.71;95304.00;4285513;33;20199;-60
2022/07/28 01:53:43;;;;;;;1.43;1.40;;;;;;;19.78;75.37;95301.91;4272232;33;20183;-60
2022/07/28 01:56:18;;;;;;;2.70;1.80;;;;;;;19.79;76.78;95308.09;4285324;33;20190;-60
2022/07/28 01:58:44;;;;;;;3.53;2.57;;;;;;;19.67;74.75;95313.59;4280585;33;20204;-60
2022/07/28 02:01:13;;;;;;;1.20;1.20;;;;;;;19.71;76.68;95307.16;4282085;33;20295;-60
2022/07/28 02:03:42;;;;;;;1.00;1.00;;;;;;;19.60;75.56;95300.75;4275360;33;20214;-60
2022/07/28 02:06:14;;;;;;;1.63;1.63;;;;;;;19.59;76.91;95304.56;4277848;33;20191;-60
2022/07/28 02:08:41;;;;;;;1.63;1.63;;;;;;;19.54;76.51;95310.22;4284630;33;20264;-60
2022/07/28 02:13:57;;;;;;;3.67;2.97;;;;;;;19.37;76.64;95310.56;4283760;33;20221;-60
2022/07/28 02:16:25;;;;;;;1.57;1.50;;;;;;;19.30;78.47;95303.12;4277213;33;20206;-60
2022/07/28 02:18:52;;;;;;;2.83;2.73;;;;;;;19.43;77.22;95296.50;4284871;33;20194;-61
2022/07/28 02:21:20;;;;;;;1.70;1.70;;;;;;;19.44;76.81;95294.59;4292636;33;20190;-61
2022/07/28 02:23:47;;;;;;;2.07;1.97;;;;;;;19.39;76.62;95301.03;4274022;33;20199;-62
2022/07/28 02:26:15;;;;;;;4.93;1.80;;;;;;;19.45;76.73;95291.56;4276086;33;20198;-61
2022/07/28 02:28:42;;;;;;;1.70;1.60;;;;;;;19.19;76.72;95294.03;4281371;33;20187;-61
2022/07/28 02:31:43;;;;;;;1.70;1.63;;;;;;;19.41;79.34;95292.59;4278743;33;20225;-61
2022/07/28 02:34:11;;;;;;;1.90;1.83;;;;;;;19.30;78.15;95289.69;4264152;33;20255;-61
2022/07/28 02:36:41;;;;;;;2.43;2.33;;;;;;;19.36;78.52;95290.97;4279720;33;20191;-61
2022/07/28 02:39:14;;;;;;;1.87;1.87;;;;;;;19.39;78.29;95282.19;4278481;33;20186;-60
2022/07/28 02:41:41;;;;;;;5.20;3.10;;;;;;;19.51;77.91;95290.19;4282557;33;20205;-61
2022/07/28 02:44:14;;;;;;;2.10;2.00;;;;;;;19.50;76.71;95290.56;4285370;33;20246;-61
2022/07/28 02:46:43;;;;;;;1.50;1.50;;;;;;;19.36;78.68;95287.47;4287833;33;20195;-61
2022/07/28 02:49:18;;;;;;;2.53;2.43;;;;;;;19.38;78.76;95287.91;4267469;33;20195;-61
2022/07/28 02:51:47;;;;;;;1.33;1.33;;;;;;;19.42;78.01;95286.88;4292931;33;20208;-61
2022/07/28 02:54:16;;;;;;;2.53;2.37;;;;;;;19.41;78.58;95288.00;4282764;33;20237;-61
2022/07/28 02:56:42;;;;;;;3.67;2.00;;;;;;;19.25;77.88;95281.09;4287584;33;20214;-61
2022/07/28 02:59:09;;;;;;;1.60;1.57;;;;;;;19.12;79.14;95286.56;4291333;33;20198;-61
2022/07/28 03:01:35;;;;;;;2.50;2.40;;;;;;;19.28;79.48;95285.78;4284400;33;20245;-60
2022/07/28 03:04:01;;;;;;;1.93;1.83;;;;;;;19.28;79.49;95283.09;4284649;33;20186;-61
2022/07/28 03:06:27;;;;;;;2.10;2.00;;;;;;;19.33;78.55;95286.28;4277735;33;20242;-60
2022/07/28 03:08:52;;;;;;;2.30;2.20;;;;;;;19.32;79.51;95279.34;4286664;33;20206;-61
2022/07/28 03:11:17;;;;;;;1.73;1.63;;;;;;;19.32;79.10;95289.34;4288535;33;20214;-60
2022/07/28 03:13:43;;;;;;;2.47;2.37;;;;;;;19.28;78.41;95289.25;4277512;33;20191;-60
2022/07/28 03:16:12;;;;;;;5.57;2.03;;;;;;;19.07;78.39;95300.28;4286415;33;20238;-60
2022/07/28 03:18:38;;;;;;;2.20;2.10;;;;;;;19.16;80.30;95298.19;4287124;33;20190;-60
2022/07/28 03:21:03;;;;;;;2.50;2.40;;;;;;;19.40;79.39;95304.50;4285022;33;20229;-61
2022/07/28 03:23:33;;;;;;;3.50;2.70;;;;;;;19.44;79.29;95303.47;4276911;33;20203;-61
2022/07/28 03:26:11;;;;;;;2.30;2.20;;;;;;;19.27;78.30;95309.22;4287600;33;20261;-61
2022/07/28 03:28:38;;;;;;;3.33;3.10;;;;;;;19.27;79.89;95313.81;4294495;33;20190;-60
2022/07/28 03:31:13;;;;;;;1.70;1.70;;;;;;;19.48;79.30;95308.91;4289589;33;20197;-61
2022/07/28 03:33:38;;;;;;;2.10;2.00;;;;;;;19.51;78.82;95309.03;4289660;33;20210;-61
2022/07/28 03:36:20;;;;;;;2.13;1.50;;;;;;;19.30;78.64;95313.13;4292683;33;20213;-61
2022/07/28 03:38:52;;;;;;;1.60;1.60;;;;;;;19.20;77.86;95306.34;4289589;33;20195;-61
2022/07/28 03:41:19;;;;;;;1.70;1.60;;;;;;;19.26;78.76;95310.34;4292874;33;20289;-61
2022/07/28 03:43:45;;;;;;;2.10;2.00;;;;;;;19.38;79.17;95306.75;4290079;33;20195;-66
2022/07/28 03:46:13;;;;;;;3.80;1.80;;;;;;;19.38;79.50;95304.06;4281911;33;20258;-60
2022/07/28 03:48:39;;;;;;;1.47;1.47;;;;;;;19.50;79.01;95302.09;4292590;33;20220;-61
2022/07/28 03:51:13;;;;;;;1.80;1.70;;;;;;;19.44;78.82;95299.97;4284623;33;20270;-60
2022/07/28 03:53:40;;;;;;;1.47;1.47;;;;;;;19.46;79.06;95301.19;4291016;33;20213;-61
2022/07/28 03:56:14;;;;;;;1.53;1.53;;;;;;;19.49;77.97;95300.50;4299397;33;20308;-60
2022/07/28 03:58:40;;;;;;;1.53;1.53;;;;;;;19.38;77.03;95296.00;4292766;33;20202;-61
2022/07/28 04:01:05;;;;;;;2.20;2.00;;;;;;;19.24;79.11;95293.75;4277107;33;20262;-60
2022/07/28 04:03:30;;;;;;;2.33;2.20;;;;;;;19.18;79.42;95298.63;4278752;33;20205;-61
2022/07/28 04:05:56;;;;;;;2.60;2.50;;;;;;;19.16;78.23;95298.19;4278207;33;20249;-60
2022/07/28 04:08:21;;;;;;;1.47;1.47;;;;;;;19.14;79.75;95294.28;4297074;33;20228;-61
2022/07/28 04:10:47;;;;;;;1.77;1.77;;;;;;;18.98;80.30;95299.66;4293865;33;20236;-61
2022/07/28 04:13:13;;;;;;;2.07;1.97;;;;;;;19.01;80.06;95296.28;4290365;33;20230;-61
2022/07/28 04:15:38;;;;;;;2.33;1.70;;;;;;;18.97;80.85;95300.78;4284916;33;20279;-60
2022/07/28 04:18:04;;;;;;;2.37;2.27;;;;;;;18.93;81.20;95305.28;4278728;33;20194;-62
2022/07/28 04:20:29;;;;;;;1.83;1.73;;;;;;;19.09;81.77;95299.94;4267708;33;20186;-62
2022/07/28 04:22:55;;;;;;;2.50;2.40;;;;;;;19.08;79.00;95301.84;4286530;33;20202;-61
2022/07/28 04:25:23;;;;;;;2.13;2.03;;;;;;;19.05;80.73;95307.91;4287908;33;20199;-60
2022/07/28 04:27:49;;;;;;;1.63;1.63;;;;;;;18.96;79.92;95303.81;4262279;33;20202;-61
2022/07/28 04:30:17;;;;;;;1.23;1.23;;;;;;;18.90;79.72;95307.91;4296840;33;20228;-63
2022/07/28 04:32:47;;;;;;;1.83;1.73;;;;;;;19.15;81.45;95301.22;4287595;33;20202;-63
2022/07/28 04:35:14;;;;;;;1.70;1.63;;;;;;;19.12;80.68;95302.69;4291208;33;20210;-63
2022/07/28 04:37:40;;;;;;;1.90;1.80;;;;;;;19.00;79.40;95310.88;4284977;33;20194;-63
2022/07/28 04:40:08;;;;;;;7.97;2.87;;;;;;;18.98;81.24;95305.03;4276079;33;20273;-63
2022/07/28 04:42:34;;;;;;;1.60;1.50;;;;;;;18.95;80.82;95303.03;4282606;33;20191;-63
2022/07/28 04:45:00;;;;;;;2.00;1.90;;;;;;;18.90;79.84;95311.41;4292565;33;20229;-63
2022/07/28 04:47:27;;;;;;;1.37;1.27;;;;;;;18.76;80.05;95316.38;4288869;33;20229;-63
2022/07/28 04:49:52;;;;;;;2.23;2.13;;;;;;;18.75;81.35;95307.53;4291050;33;20190;-61
2022/07/28 04:52:18;;;;;;;1.93;1.83;;;;;;;18.79;81.43;95310.31;4282525;33;20200;-62
2022/07/28 04:54:44;;;;;;;2.80;2.13;;;;;;;18.86;81.62;95305.13;4285913;33;20195;-62
2022/07/28 04:57:10;;;;;;;1.57;1.50;;;;;;;18.93;80.71;95310.69;4287513;33;20194;-62
2022/07/28 04:59:36;;;;;;;2.50;2.30;;;;;;;18.86;80.07;95310.50;4286078;33;20278;-62
2022/07/28 05:02:01;;;;;;;2.33;1.90;;;;;;;18.91;81.50;95312.94;4289449;33;20245;-62
2022/07/28 05:04:27;;;;;;;2.13;2.03;;;;;;;19.14;81.93;95316.56;4281300;33;20249;-62
2022/07/28 05:06:52;;;;;;;2.70;2.23;;;;;;;19.14;80.81;95321.97;4282100;33;20212;-62
2022/07/28 05:09:17;;;;;;;2.43;2.13;;;;;;;19.10;80.43;95317.62;4271495;33;20242;-63
2022/07/28 05:11:43;;;;;;;1.73;1.63;;;;;;;19.03;80.37;95320.94;4274353;33;20199;-62
2022/07/28 05:14:08;;;;;;;4.10;2.33;;;;;;;19.01;81.62;95323.19;4273261;33;20222;-62
2022/07/28 05:16:34;;;;;;;1.73;1.63;;;;;;;18.98;81.40;95323.88;4273751;33;20199;-62
2022/07/28 05:19:00;;;;;;;1.90;1.87;;;;;;;18.91;80.00;95322.94;4280299;33;20191;-62
2022/07/28 05:21:25;;;;;;;1.93;1.83;;;;;;;18.78;81.03;95314.13;4280901;33;20218;-62
2022/07/28 05:23:50;;;;;;;1.20;1.20;;;;;;;18.99;82.56;95320.06;4275941;33;20202;-62
2022/07/28 05:26:16;;;;;;;1.80;1.70;;;;;;;19.02;81.19;95323.97;4279180;33;20190;-63
2022/07/28 05:28:41;;;;;;;1.97;1.87;;;;;;;18.87;81.63;95317.47;4283277;33;20208;-62
2022/07/28 05:31:19;;;;;;;2.30;2.17;;;;;;;19.05;80.12;95315.97;4277843;33;20194;-62
2022/07/28 05:33:45;;;;;;;1.73;1.63;;;;;;;19.11;81.08;95316.50;4276048;33;20229;-65
2022/07/28 05:36:19;;;;;;;2.33;2.23;;;;;;;19.28;80.70;95320.75;4283383;33;20186;-62
2022/07/28 05:38:45;;;;;;;4.60;1.97;;;;;;;19.35;81.22;95320.91;4279116;33;20190;-64
2022/07/28 05:41:14;;;;;;;7.27;2.37;;;;;;;19.45;80.12;95321.16;4280706;33;20191;-62
2022/07/28 05:43:39;;;;;;;1.73;1.73;;;;;;;19.48;80.45;95320.47;4277098;33;20276;-62
2022/07/28 05:46:10;;;;;;;1.40;1.40;;;;;;;19.39;80.57;95324.47;4269827;33;20273;-62
2022/07/28 05:48:36;;;;;;;2.30;0.93;;;;;;;19.19;79.06;95323.59;4284756;33;20347;-62
2022/07/28 05:51:01;;;;;;;2.60;2.40;;;;;;;19.32;78.99;95321.63;4283930;33;20198;-61
2022/07/28 05:53:26;;;;;;;2.47;2.27;;;;;;;19.44;79.49;95324.19;4284323;33;20242;-61
2022/07/28 05:55:52;;;;;;;1.53;1.53;;;;;;;19.09;79.55;95330.31;4277621;33;20201;-61
2022/07/28 05:58:21;;;;;;;1.63;1.63;;;;;;;19.30;78.97;95318.50;4279866;33;20264;-62
2022/07/28 06:00:47;;;;;;;1.93;1.83;;;;;;;19.22;79.64;95328.28;4271950;33;20191;-61
2022/07/28 06:03:12;;;;;;;4.13;2.23;;;;;;;19.27;80.39;95330.72;4280049;33;20233;-61
2022/07/28 06:05:38;;;;;;;1.60;1.60;;;;;;;19.48;79.76;95330.44;4277502;33;20254;-61
2022/07/28 06:08:03;;;;;;;2.37;2.27;;;;;;;19.50;79.01;95322.84;4289906;33;20205;-61
2022/07/28 06:13:14;;;;;;;1.23;1.23;;;;;;;19.59;79.89;95328.03;4290286;33;20250;-61
2022/07/28 06:15:40;;;;;;;2.37;2.23;;;;;;;19.44;79.49;95319.59;4284996;33;20210;-61
2022/07/28 06:18:06;;;;;;;7.63;2.40;;;;;;;19.54;78.30;95321.00;4296050;33;20284;-60
2022/07/28 06:20:31;;;;;;;2.27;2.07;;;;;;;19.45;79.31;95325.75;4298562;33;20226;-60
2022/07/28 06:22:57;;;;;;;2.07;1.97;;;;;;;19.37;80.10;95334.78;4279925;33;20191;-60
2022/07/28 06:25:24;;;;;;;1.33;1.33;;;;;;;19.47;79.78;95334.28;4293309;33;20209;-60
2022/07/28 06:27:55;;;;;;;4.17;2.07;;;;;;;19.48;79.11;95325.84;4289347;33;20220;-60
2022/07/28 06:30:21;;;;;;;2.00;1.80;;;;;;;19.54;79.20;95326.38;4277876;33;20213;-61
2022/07/28 06:32:46;;;;;;;1.20;1.20;;;;;;;19.55;79.22;95325.25;4277044;33;20195;-60
2022/07/28 06:35:15;;;;;;;2.27;2.10;;;;;;;19.62;78.94;95335.41;4288332;33;20201;-60
2022/07/28 06:37:43;;;;;;;1.73;1.70;;;;;;;19.59;78.96;95333.41;4290314;33;20205;-61
2022/07/28 06:40:10;;;;;;;1.63;1.57;;;;;;;19.66;79.14;95337.03;4282107;33;20195;-60
2022/07/28 06:42:37;;;;;;;2.33;2.10;;;;;;;19.50;79.21;95331.69;4275818;33;20436;-60
2022/07/28 06:45:04;;;;;;;1.70;1.70;;;;;;;19.59;79.68;95326.09;4289370;33;20209;-60
2022/07/28 06:47:29;;;;;;;2.00;1.90;;;;;;;19.73;79.08;95331.84;4286221;33;20210;-62
2022/07/28 06:49:54;;;;;;;1.50;1.50;;;;;;;19.70;79.43;95329.84;4275724;33;20209;-64
2022/07/28 06:52:20;;;;;;;2.20;1.87;;;;;;;19.96;78.50;95333.81;4285518;33;20213;-63
2022/07/28 06:54:49;;;;;;;2.03;1.93;;;;;;;20.08;78.46;95331.03;4263712;33;20246;-64
2022/07/28 06:57:15;;;;;;;2.40;2.23;;;;;;;20.32;77.27;95333.44;4271308;33;20201;-64
2022/07/28 06:59:40;;;;;;;1.83;1.73;;;;;;;20.41;77.09;95335.94;4291412;33;20191;-62
2022/07/28 07:02:06;;;;;;;0.93;0.93;;;;;;;20.49;76.18;95332.25;4289875;33;20186;-65
2022/07/28 07:04:32;;;;;;;1.27;1.27;;;;;;;20.57;76.41;95331.25;4298725;33;20194;-65
2022/07/28 07:06:58;;;;;;;2.23;2.13;;;;;;;20.66;76.34;95334.50;4293091;33;20283;-65
2022/07/28 07:09:23;;;;;;;0.80;0.80;;;;;;;20.67;75.41;95332.59;4295859;33;20199;-66
2022/07/28 07:11:48;;;;;;;1.13;1.13;;;;;;;20.66;76.52;95331.03;4294814;33;20137;-67
2022/07/28 07:14:14;;;;;;;1.10;1.00;;;;;;;20.57;75.96;95326.66;4291610;33;20209;-65
2022/07/28 07:16:39;;;;;;;1.17;1.17;;;;;;;20.71;76.87;95331.53;4275564;33;20210;-65
2022/07/28 07:19:04;;;;;;;3.83;1.63;;;;;;;20.86;75.80;95321.75;4289299;33;20312;-65
2022/07/28 07:21:30;;;;;;;1.33;1.23;;;;;;;20.89;74.95;95313.72;4291306;33;20261;-64
2022/07/28 07:23:55;;;;;;;1.37;1.37;;;;;;;20.79;75.43;95319.72;4289705;33;20190;-62
2022/07/28 07:26:20;;;;;;;4.63;1.70;;;;;;;20.89;74.86;95312.97;4261929;33;20202;-65
2022/07/28 07:28:46;;;;;;;1.47;1.47;;;;;;;20.90;74.87;95307.19;4296804;33;20281;-65
2022/07/28 07:31:12;;;;;;;1.80;1.73;;;;;;;20.92;74.89;95309.53;4289430;33;20203;-65
2022/07/28 07:33:37;;;;;;;1.43;1.43;;;;;;;20.87;75.10;95309.84;4294760;33;20265;-61
2022/07/28 07:36:08;;;;;;;1.07;1.07;;;;;;;20.87;75.22;95310.62;4278953;33;20212;-63
2022/07/28 07:38:33;;;;;;;1.30;1.30;;;;;;;21.02;74.44;95300.84;4288636;33;20198;-64
2022/07/28 07:40:59;;;;;;;1.33;1.33;;;;;;;21.00;74.80;95300.41;4284524;33;20198;-62
2022/07/28 07:43:25;;;;;;;1.30;1.30;;;;;;;21.00;75.06;95299.63;4283243;33;20198;-64
2022/07/28 07:45:51;;;;;;;1.80;1.70;;;;;;;21.23;74.36;95303.12;4283454;33;20202;-65
2022/07/28 07:48:17;;;;;;;1.00;1.00;;;;;;;21.33;73.30;95301.75;4288157;33;20211;-61
2022/07/28 07:50:43;;;;;;;1.13;1.13;;;;;;;21.38;73.63;95294.12;4288225;33;20225;-60
2022/07/28 07:53:08;;;;;;;4.53;2.17;;;;;;;21.42;73.22;95288.78;4283249;33;20201;-63
2022/07/28 07:55:34;;;;;;;1.23;1.23;;;;;;;21.37;72.97;95297.97;4279135;33;20201;-62
2022/07/28 07:57:59;;;;;;;0.73;0.73;;;;;;;21.28;72.95;95289.34;4273989;33;20211;-65
2022/07/28 08:00:24;;;;;;;1.03;1.03;;;;;;;21.37;73.13;95287.19;4286234;33;20206;-64
2022/07/28 08:02:50;;;;;;;1.67;1.57;;;;;;;21.51;72.16;95302.81;4284153;33;20195;-65
2022/07/28 08:05:16;;;;;;;0.73;0.73;;;;;;;21.48;72.36;95287.31;4289176;33;20186;-65
2022/07/28 08:07:42;;;;;;;1.60;1.57;;;;;;;21.61;71.44;95294.09;4295632;33;20194;-62
2022/07/28 08:10:07;;;;;;;1.73;1.63;;;;;;;21.67;71.68;95281.81;4292424;33;20194;-62
2022/07/28 08:12:33;;;;;;;1.27;1.27;;;;;;;21.67;71.52;95284.50;4286940;33;20210;-64
2022/07/28 08:14:59;;;;;;;1.90;1.80;;;;;;;21.70;71.11;95288.41;4281564;33;20274;-59
2022/07/28 08:17:24;;;;;;;1.53;1.43;;;;;;;21.82;70.60;95291.66;4287069;33;20213;-61
2022/07/28 08:19:50;;;;;;;2.80;1.30;;;;;;;21.80;70.88;95293.97;4272666;33;20220;-61
2022/07/28 08:22:16;;;;;;;1.73;1.63;;;;;;;21.84;70.97;95283.19;4288685;33;20195;-64
2022/07/28 08:24:41;;;;;;;1.40;1.40;;;;;;;21.93;71.20;95283.72;4273491;33;20219;-61
2022/07/28 08:27:07;;;;;;;0.87;0.87;;;;;;;21.96;71.17;95288.38;4285532;33;20195;-62
2022/07/28 08:29:32;;;;;;;1.20;1.20;;;;;;;21.95;71.04;95284.91;4271596;33;20203;-61
2022/07/28 08:32:01;;;;;;;2.13;2.03;;;;;;;21.89;71.68;95285.56;4290847;33;20246;-61
2022/07/28 08:34:27;;;;;;;3.00;1.13;;;;;;;21.78;71.68;95285.44;4272647;33;20230;-63
2022/07/28 08:36:53;;;;;;;2.30;2.20;;;;;;;21.82;72.07;95288.94;4289495;33;20266;-61
2022/07/28 08:39:18;;;;;;;1.37;1.27;;;;;;;21.72;72.27;95284.19;4278789;33;20294;-62
2022/07/28 08:41:50;;;;;;;1.10;1.10;;;;;;;21.82;71.84;95286.25;4288200;33;20205;-61
2022/07/28 08:44:19;;;;;;;1.30;1.30;;;;;;;21.89;71.12;95289.06;4284360;33;20252;-63
2022/07/28 08:46:47;;;;;;;1.57;1.13;;;;;;;21.89;71.03;95283.66;4290921;33;20228;-61
2022/07/28 08:49:14;;;;;;;1.67;1.57;;;;;;;22.00;70.61;95285.72;4291348;33;20242;-61
2022/07/28 08:51:41;;;;;;;4.20;1.63;;;;;;;22.06;70.00;95293.16;4277755;33;20294;-62
2022/07/28 08:54:08;;;;;;;1.00;1.00;;;;;;;22.03;70.00;95293.13;4273397;33;20285;-61
2022/07/28 08:56:38;;;;;;;1.00;1.00;;;;;;;21.99;70.15;95287.66;4295090;33;20230;-62
2022/07/28 08:59:04;;;;;;;1.73;1.63;;;;;;;22.09;69.71;95287.03;4286963;33;20190;-60
2022/07/28 09:01:30;;;;;;;1.17;1.10;;;;;;;22.12;69.96;95290.91;4295928;33;20209;-61
2022/07/28 09:03:56;;;;;;;0.97;0.97;;;;;;;22.17;69.85;95291.37;4284992;33;20210;-60
2022/07/28 09:06:23;;;;;;;1.60;1.60;;;;;;;22.28;69.98;95294.97;4286133;33;20247;-60
2022/07/28 09:08:49;;;;;;;2.07;1.87;;;;;;;22.35;69.55;95285.41;4279235;33;20252;-61
2022/07/28 09:11:17;;;;;;;1.97;1.87;;;;;;;22.40;69.07;95293.97;4272348;33;20191;-60
2022/07/28 09:13:43;;;;;;;3.73;2.23;;;;;;;22.40;69.25;95283.16;4268172;33;20207;-60
2022/07/28 09:16:27;;;;;;;1.03;1.03;;;;;;;22.43;68.84;95287.81;4266731;33;20199;-59
2022/07/28 09:18:52;;;;;;;2.17;1.73;;;;;;;22.43;68.50;95287.03;4271346;33;20226;-60
2022/07/28 09:21:23;;;;;;;0.80;0.80;;;;;;;22.62;66.84;95293.03;4285796;33;20307;-60
2022/07/28 09:23:49;;;;;;;1.47;0.90;;;;;;;22.74;66.43;95283.87;4279149;33;20292;-59
2022/07/28 09:26:17;;;;;;;1.43;1.43;;;;;;;22.75;66.95;95282.72;4278695;33;20235;-60
2022/07/28 09:28:54;;;;;;;1.13;1.13;;;;;;;22.80;67.18;95287.06;4279078;33;20218;-59
2022/07/28 09:31:26;;;;;;;1.07;1.07;;;;;;;22.83;67.22;95281.69;4290026;33;20237;-60
2022/07/28 09:34:04;;;;;;;2.37;1.50;;;;;;;22.81;66.87;95281.28;4258892;33;20195;-60
2022/07/28 09:36:40;;;;;;;0.90;0.90;;;;;;;22.85;67.24;95286.72;4278944;33;20224;-60
2022/07/28 09:39:06;;;;;;;1.23;1.23;;;;;;;23.08;65.42;95281.09;4279882;33;20376;-60
2022/07/28 09:41:51;;;;;;;1.53;1.43;;;;;;;23.08;65.12;95273.75;4271112;33;20193;-60
2022/07/28 09:44:21;;;;;;;1.20;1.10;;;;;;;23.05;64.72;95274.53;4282487;33;20182;-60
2022/07/28 09:46:47;;;;;;;0.90;0.90;;;;;;;23.14;64.61;95274.19;4265648;33;20202;-60
2022/07/28 09:49:12;;;;;;;0.97;0.97;;;;;;;23.19;64.59;95271.16;4272592;33;20288;-59
2022/07/28 09:51:38;;;;;;;0.90;0.90;;;;;;;23.20;64.76;95275.41;4283886;33;20199;-60
2022/07/28 09:54:12;;;;;;;1.33;1.30;;;;;;;23.17;64.08;95268.81;4282073;33;20246;-62
2022/07/28 09:56:39;;;;;;;1.13;1.13;;;;;;;23.29;63.58;95268.50;4289796;33;20189;-60
2022/07/28 09:59:06;;;;;;;1.87;1.77;;;;;;;23.34;64.08;95269.31;4297265;33;20192;-60
2022/07/28 10:01:32;;;;;;;2.97;2.77;;;;;;;23.38;63.15;95270.13;4281910;33;20255;-60
2022/07/28 10:04:00;;;;;;;1.70;1.57;;;;;;;23.46;62.89;95267.09;4292204;33;20195;-60
2022/07/28 10:06:27;;;;;;;1.17;1.17;;;;;;;23.40;63.46;95262.41;4290907;33;20222;-61
2022/07/28 10:08:55;;;;;;;1.10;0.90;;;;;;;23.42;63.07;95265.53;4267643;33;20199;-61
2022/07/28 10:11:29;;;;;;;0.93;0.93;;;;;;;23.51;62.73;95263.25;4277094;33;20187;-60
2022/07/28 10:14:02;;;;;;;1.90;1.77;;;;;;;23.61;61.41;95273.41;4281219;33;20233;-60
2022/07/28 10:16:40;;;;;;;1.03;1.03;;;;;;;23.59;62.14;95265.66;4273606;33;20194;-60
2022/07/28 10:19:06;;;;;;;1.63;1.57;;;;;;;23.61;61.84;95262.56;4284993;33;20321;-60
2022/07/28 10:21:34;;;;;;;0.93;0.93;;;;;;;23.80;60.98;95270.41;4288808;33;20194;-60
2022/07/28 10:24:07;;;;;;;0.93;0.93;;;;;;;23.93;59.94;95252.66;4286489;33;20198;-60
2022/07/28 10:26:38;;;;;;;6.13;5.73;;;;;;;23.91;60.00;95259.63;4289968;33;20195;-60
2022/07/28 10:29:08;;;;;;;6.13;1.50;;;;;;;23.96;59.96;95256.56;4273437;33;20254;-60
2022/07/28 10:31:57;;;;;;;1.70;1.63;;;;;;;23.93;59.53;95258.09;4282946;33;20203;-60
2022/07/28 10:34:33;;;;;;;1.73;1.63;;;;;;;23.95;59.69;95255.78;4288427;33;20194;-61
2022/07/28 10:37:02;;;;;;;0.70;0.70;;;;;;;23.85;59.51;95256.53;4265464;33;20257;-61
2022/07/28 10:39:43;;;;;;;1.03;1.00;;;;;;;23.87;59.31;95264.28;4276722;33;20250;-61
2022/07/28 10:42:11;;;;;;;1.27;1.10;;;;;;;23.91;59.09;95257.69;4288775;33;20190;-61
2022/07/28 10:44:37;;;;;;;1.37;1.27;;;;;;;23.94;59.49;95264.28;4290276;33;20293;-60
2022/07/28 10:47:08;;;;;;;0.50;0.50;;;;;;;24.01;59.66;95252.72;4285288;33;20198;-61
2022/07/28 10:49:34;;;;;;;0.80;0.80;;;;;;;24.05;59.23;95248.09;4292452;33;20212;-60
2022/07/28 10:52:01;;;;;;;1.23;1.23;;;;;;;24.17;58.31;95251.22;4289419;33;20254;-61
2022/07/28 10:54:28;;;;;;;0.90;0.90;;;;;;;24.16;59.05;95248.88;4291215;33;20190;-61
2022/07/28 10:56:59;;;;;;;1.67;1.57;;;;;;;24.13;60.22;95249.66;4288847;33;20213;-62
2022/07/28 10:59:55;;;;;;;1.00;1.00;;;;;;;24.21;59.82;95254.72;4280458;33;20187;-62
2022/07/28 11:02:49;;;;;;;1.10;1.10;;;;;;;24.29;59.26;95252.84;4285431;33;20194;-58
2022/07/28 11:05:32;;;;;;;1.17;1.07;;;;;;;24.23;58.84;95244.28;4289530;33;20228;-59
2022/07/28 11:08:00;;;;;;;4.13;1.03;;;;;;;24.20;59.28;95260.53;4281912;33;20183;-59
2022/07/28 11:10:27;;;;;;;1.27;1.17;;;;;;;24.21;59.83;95253.94;4275429;33;20263;-61
2022/07/28 11:12:57;;;;;;;1.30;1.30;;;;;;;24.24;59.40;95250.50;4271068;33;20220;-61
2022/07/28 11:15:36;;;;;;;0.80;0.80;;;;;;;24.35;58.82;95261.38;4281585;33;20202;-60
2022/07/28 11:18:08;;;;;;;0.80;0.80;;;;;;;24.30;58.45;95248.97;4291056;33;20238;-60
2022/07/28 11:20:52;;;;;;;0.60;0.60;;;;;;;24.25;58.81;95243.91;4292585;33;20246;-60
2022/07/28 11:23:35;;;;;;;0.70;0.70;;;;;;;24.36;58.32;95243.94;4289981;33;20187;-61
2022/07/28 11:26:27;;;;;;;0.70;0.70;;;;;;;24.43;57.60;95247.47;4288757;33;20245;-60
2022/07/28 11:29:05;;;;;;;0.73;0.73;;;;;;;24.47;57.72;95242.81;4270915;33;20198;-61
2022/07/28 11:31:43;;;;;;;0.80;0.80;;;;;;;24.48;57.87;95244.37;4295835;33;20190;-61
2022/07/28 11:34:12;;;;;;;1.43;1.20;;;;;;;24.57;56.99;95246.69;4280573;33;20209;-60
2022/07/28 11:37:03;;;;;;;0.63;0.63;;;;;;;24.59;57.00;95234.31;4269206;33;20238;-58
2022/07/28 11:39:36;;;;;;;0.83;0.83;;;;;;;24.56;56.76;95258.72;4271643;33;20226;-62
2022/07/28 11:42:28;;;;;;;0.60;0.60;;;;;;;24.56;56.68;95240.50;4264125;33;20341;-60
2022/07/28 11:44:55;;;;;;;0.50;0.50;;;;;;;24.51;56.44;95237.41;4285099;33;20245;-61
2022/07/28 11:47:23;;;;;;;1.33;1.17;;;;;;;24.50;56.56;95239.34;4287130;33;20198;-61
2022/07/28 11:50:14;;;;;;;2.30;0.50;;;;;;;24.64;55.96;95236.66;4289468;33;20235;-62